sensor_id;sensor_type;location;lat;lon;timestamp;P1;durP1;ratioP1;P2;durP2;ratioP2
64235;SDS011;50564;47.402;9.740;2023-03-03T00:01:00;31.75;;;17.55;;
64235;SDS011;50564;47.402;9.740;2023-03-03T00:06:01;34.10;;;18.35;;
64235;SDS011;50564;47.402;9.740;2023-03-03T00:11:03;38.17;;;18.23;;
64235;SDS011;50564;47.402;9.740;2023-03-03T00:21:42;32.28;;;17.10;;
64235;SDS011;50564;47.402;9.740;2023-03-03T00:26:55;36.20;;;17.92;;
64235;SDS011;50564;47.402;9.740;2023-03-03T00:32:17;31.23;;;16.48;;
64235;SDS011;50564;47.402;9.740;2023-03-03T00:37:29;28.75;;;15.73;;
64235;SDS011;50564;47.402;9.740;2023-03-03T00:42:30;28.17;;;14.77;;
64235;SDS011;50564;47.402;9.740;2023-03-03T00:47:36;27.48;;;14.43;;
64235;SDS011;50564;47.402;9.740;2023-03-03T00:52:45;25.65;;;13.98;;
64235;SDS011;50564;47.402;9.740;2023-03-03T00:58:12;25.42;;;13.48;;
64235;SDS011;50564;47.402;9.740;2023-03-03T01:03:21;26.52;;;12.93;;
64235;SDS011;50564;47.402;9.740;2023-03-03T01:08:24;22.52;;;12.60;;
64235;SDS011;50564;47.402;9.740;2023-03-03T01:13:26;22.40;;;11.38;;
64235;SDS011;50564;47.402;9.740;2023-03-03T01:18:29;21.88;;;11.80;;
64235;SDS011;50564;47.402;9.740;2023-03-03T01:23:30;21.17;;;10.93;;
64235;SDS011;50564;47.402;9.740;2023-03-03T01:28:31;21.42;;;10.52;;
64235;SDS011;50564;47.402;9.740;2023-03-03T01:33:33;19.63;;;11.20;;
64235;SDS011;50564;47.402;9.740;2023-03-03T01:38:35;21.65;;;10.68;;
64235;SDS011;50564;47.402;9.740;2023-03-03T01:43:41;19.13;;;10.35;;
64235;SDS011;50564;47.402;9.740;2023-03-03T01:48:43;21.33;;;11.23;;
64235;SDS011;50564;47.402;9.740;2023-03-03T01:53:46;20.42;;;10.95;;
64235;SDS011;50564;47.402;9.740;2023-03-03T02:04:07;20.02;;;11.07;;
64235;SDS011;50564;47.402;9.740;2023-03-03T02:09:10;19.73;;;10.40;;
64235;SDS011;50564;47.402;9.740;2023-03-03T02:14:12;17.90;;;9.07;;
64235;SDS011;50564;47.402;9.740;2023-03-03T02:24:54;21.17;;;10.52;;
64235;SDS011;50564;47.402;9.740;2023-03-03T02:30:07;20.55;;;11.00;;
64235;SDS011;50564;47.402;9.740;2023-03-03T02:40:36;19.02;;;9.68;;
64235;SDS011;50564;47.402;9.740;2023-03-03T02:45:43;22.88;;;11.48;;
64235;SDS011;50564;47.402;9.740;2023-03-03T02:50:44;24.50;;;12.60;;
64235;SDS011;50564;47.402;9.740;2023-03-03T02:55:45;23.20;;;12.90;;
64235;SDS011;50564;47.402;9.740;2023-03-03T03:00:45;25.50;;;13.82;;
64235;SDS011;50564;47.402;9.740;2023-03-03T03:05:49;35.67;;;18.30;;
64235;SDS011;50564;47.402;9.740;2023-03-03T03:10:53;31.50;;;16.65;;
64235;SDS011;50564;47.402;9.740;2023-03-03T03:15:57;29.42;;;15.98;;
64235;SDS011;50564;47.402;9.740;2023-03-03T03:21:09;30.98;;;15.73;;
64235;SDS011;50564;47.402;9.740;2023-03-03T03:26:11;32.65;;;17.10;;
64235;SDS011;50564;47.402;9.740;2023-03-03T03:31:12;37.78;;;18.20;;
64235;SDS011;50564;47.402;9.740;2023-03-03T03:36:14;35.22;;;17.83;;
64235;SDS011;50564;47.402;9.740;2023-03-03T03:41:15;28.83;;;16.15;;
64235;SDS011;50564;47.402;9.740;2023-03-03T03:46:16;37.58;;;19.33;;
64235;SDS011;50564;47.402;9.740;2023-03-03T03:51:17;37.38;;;20.38;;
64235;SDS011;50564;47.402;9.740;2023-03-03T03:56:18;34.03;;;17.98;;
64235;SDS011;50564;47.402;9.740;2023-03-03T04:01:22;29.00;;;15.35;;
64235;SDS011;50564;47.402;9.740;2023-03-03T04:06:24;29.60;;;16.13;;
64235;SDS011;50564;47.402;9.740;2023-03-03T04:11:26;32.88;;;16.70;;
64235;SDS011;50564;47.402;9.740;2023-03-03T04:16:27;26.80;;;15.00;;
64235;SDS011;50564;47.402;9.740;2023-03-03T04:21:28;28.27;;;15.18;;
64235;SDS011;50564;47.402;9.740;2023-03-03T04:26:31;25.05;;;13.75;;
64235;SDS011;50564;47.402;9.740;2023-03-03T04:31:35;25.23;;;14.32;;
64235;SDS011;50564;47.402;9.740;2023-03-03T04:36:37;24.02;;;14.38;;
64235;SDS011;50564;47.402;9.740;2023-03-03T04:41:38;27.42;;;14.15;;
64235;SDS011;50564;47.402;9.740;2023-03-03T04:46:39;27.02;;;13.88;;
64235;SDS011;50564;47.402;9.740;2023-03-03T04:51:40;23.40;;;13.02;;
64235;SDS011;50564;47.402;9.740;2023-03-03T04:56:41;24.13;;;13.30;;
64235;SDS011;50564;47.402;9.740;2023-03-03T05:01:42;22.88;;;12.57;;
64235;SDS011;50564;47.402;9.740;2023-03-03T05:06:46;27.67;;;14.13;;
64235;SDS011;50564;47.402;9.740;2023-03-03T05:11:46;23.45;;;13.23;;
64235;SDS011;50564;47.402;9.740;2023-03-03T05:16:47;23.50;;;12.68;;
64235;SDS011;50564;47.402;9.740;2023-03-03T05:21:48;30.95;;;16.17;;
64235;SDS011;50564;47.402;9.740;2023-03-03T05:26:48;26.55;;;15.20;;
64235;SDS011;50564;47.402;9.740;2023-03-03T05:31:49;24.88;;;14.52;;
64235;SDS011;50564;47.402;9.740;2023-03-03T05:36:50;28.08;;;16.38;;
64235;SDS011;50564;47.402;9.740;2023-03-03T05:41:50;32.70;;;17.20;;
64235;SDS011;50564;47.402;9.740;2023-03-03T05:46:51;34.50;;;18.13;;
64235;SDS011;50564;47.402;9.740;2023-03-03T05:51:52;30.58;;;17.52;;
64235;SDS011;50564;47.402;9.740;2023-03-03T05:56:52;31.25;;;16.35;;
64235;SDS011;50564;47.402;9.740;2023-03-03T06:01:53;31.90;;;17.50;;
64235;SDS011;50564;47.402;9.740;2023-03-03T06:06:53;34.47;;;19.13;;
64235;SDS011;50564;47.402;9.740;2023-03-03T06:11:54;34.45;;;19.40;;
64235;SDS011;50564;47.402;9.740;2023-03-03T06:16:55;32.55;;;17.65;;
64235;SDS011;50564;47.402;9.740;2023-03-03T06:21:57;37.25;;;19.70;;
64235;SDS011;50564;47.402;9.740;2023-03-03T06:26:58;37.20;;;18.27;;
64235;SDS011;50564;47.402;9.740;2023-03-03T06:31:59;36.90;;;19.35;;
64235;SDS011;50564;47.402;9.740;2023-03-03T06:36:59;32.28;;;17.85;;
64235;SDS011;50564;47.402;9.740;2023-03-03T06:42:00;30.92;;;17.95;;
64235;SDS011;50564;47.402;9.740;2023-03-03T06:47:01;35.03;;;19.15;;
64235;SDS011;50564;47.402;9.740;2023-03-03T06:52:07;32.40;;;18.10;;
64235;SDS011;50564;47.402;9.740;2023-03-03T06:57:29;30.88;;;18.98;;
64235;SDS011;50564;47.402;9.740;2023-03-03T07:02:31;31.20;;;18.25;;
64235;SDS011;50564;47.402;9.740;2023-03-03T07:07:32;36.70;;;21.25;;
64235;SDS011;50564;47.402;9.740;2023-03-03T07:12:33;34.00;;;19.85;;
64235;SDS011;50564;47.402;9.740;2023-03-03T07:17:34;41.33;;;22.05;;
64235;SDS011;50564;47.402;9.740;2023-03-03T07:22:38;34.67;;;19.40;;
64235;SDS011;50564;47.402;9.740;2023-03-03T07:27:39;34.95;;;18.98;;
64235;SDS011;50564;47.402;9.740;2023-03-03T07:32:44;31.85;;;17.92;;
64235;SDS011;50564;47.402;9.740;2023-03-03T07:37:45;41.90;;;19.98;;
64235;SDS011;50564;47.402;9.740;2023-03-03T07:42:46;37.70;;;20.10;;
64235;SDS011;50564;47.402;9.740;2023-03-03T07:48:06;35.88;;;19.35;;
64235;SDS011;50564;47.402;9.740;2023-03-03T07:53:28;35.15;;;19.70;;
64235;SDS011;50564;47.402;9.740;2023-03-03T07:58:37;34.08;;;20.02;;
64235;SDS011;50564;47.402;9.740;2023-03-03T08:03:39;33.83;;;19.60;;
64235;SDS011;50564;47.402;9.740;2023-03-03T08:08:40;47.17;;;24.63;;
64235;SDS011;50564;47.402;9.740;2023-03-03T08:13:43;45.17;;;25.63;;
64235;SDS011;50564;47.402;9.740;2023-03-03T08:18:48;45.35;;;25.58;;
64235;SDS011;50564;47.402;9.740;2023-03-03T08:23:50;48.30;;;27.40;;
64235;SDS011;50564;47.402;9.740;2023-03-03T08:28:52;45.97;;;25.75;;
64235;SDS011;50564;47.402;9.740;2023-03-03T08:33:54;51.03;;;27.35;;
64235;SDS011;50564;47.402;9.740;2023-03-03T08:38:55;44.10;;;24.98;;
64235;SDS011;50564;47.402;9.740;2023-03-03T08:43:56;44.65;;;25.65;;
64235;SDS011;50564;47.402;9.740;2023-03-03T08:48:57;47.20;;;26.85;;
64235;SDS011;50564;47.402;9.740;2023-03-03T08:53:57;48.97;;;27.88;;
64235;SDS011;50564;47.402;9.740;2023-03-03T08:58:58;46.55;;;25.00;;
64235;SDS011;50564;47.402;9.740;2023-03-03T09:03:59;44.75;;;25.95;;
64235;SDS011;50564;47.402;9.740;2023-03-03T09:08:59;50.25;;;27.98;;
64235;SDS011;50564;47.402;9.740;2023-03-03T09:19:21;44.28;;;25.58;;
64235;SDS011;50564;47.402;9.740;2023-03-03T09:24:26;46.53;;;26.73;;
64235;SDS011;50564;47.402;9.740;2023-03-03T09:29:29;45.47;;;25.63;;
64235;SDS011;50564;47.402;9.740;2023-03-03T09:39:41;51.80;;;29.77;;
64235;SDS011;50564;47.402;9.740;2023-03-03T09:45:03;47.35;;;26.50;;
64235;SDS011;50564;47.402;9.740;2023-03-03T09:50:17;42.83;;;26.33;;
64235;SDS011;50564;47.402;9.740;2023-03-03T10:01:11;43.50;;;27.15;;
64235;SDS011;50564;47.402;9.740;2023-03-03T10:18:00;40.42;;;25.02;;
64235;SDS011;50564;47.402;9.740;2023-03-03T10:22:34;43.30;;;25.35;;
64235;SDS011;50564;47.402;9.740;2023-03-03T10:33:01;41.17;;;25.40;;
64235;SDS011;50564;47.402;9.740;2023-03-03T11:04:32;53.72;;;31.75;;
64235;SDS011;50564;47.402;9.740;2023-03-03T11:31:32;42.88;;;24.05;;
64235;SDS011;50564;47.402;9.740;2023-03-03T11:47:14;59.17;;;32.20;;
64235;SDS011;50564;47.402;9.740;2023-03-03T12:13:02;63.40;;;35.10;;
64235;SDS011;50564;47.402;9.740;2023-03-03T12:34:21;56.33;;;33.10;;
64235;SDS011;50564;47.402;9.740;2023-03-03T12:55:56;53.97;;;31.90;;
64235;SDS011;50564;47.402;9.740;2023-03-03T13:06:14;56.03;;;33.22;;
64235;SDS011;50564;47.402;9.740;2023-03-03T13:16:38;60.80;;;32.67;;
64235;SDS011;50564;47.402;9.740;2023-03-03T13:21:53;52.42;;;31.65;;
64235;SDS011;50564;47.402;9.740;2023-03-03T13:26:57;61.20;;;33.35;;
64235;SDS011;50564;47.402;9.740;2023-03-03T13:31:59;55.13;;;32.65;;
64235;SDS011;50564;47.402;9.740;2023-03-03T13:42:17;60.88;;;34.17;;
64235;SDS011;50564;47.402;9.740;2023-03-03T13:47:41;57.10;;;31.90;;
64235;SDS011;50564;47.402;9.740;2023-03-03T13:53:00;58.00;;;33.22;;
64235;SDS011;50564;47.402;9.740;2023-03-03T14:03:52;61.22;;;34.45;;
64235;SDS011;50564;47.402;9.740;2023-03-03T14:14:51;61.92;;;35.80;;
64235;SDS011;50564;47.402;9.740;2023-03-03T14:20:17;62.70;;;34.28;;
64235;SDS011;50564;47.402;9.740;2023-03-03T14:25:22;56.53;;;33.25;;
64235;SDS011;50564;47.402;9.740;2023-03-03T14:30:24;59.33;;;35.08;;
64235;SDS011;50564;47.402;9.740;2023-03-03T14:35:31;62.60;;;35.92;;
64235;SDS011;50564;47.402;9.740;2023-03-03T14:40:34;61.20;;;35.30;;
64235;SDS011;50564;47.402;9.740;2023-03-03T14:45:38;60.40;;;34.72;;
64235;SDS011;50564;47.402;9.740;2023-03-03T14:50:40;61.47;;;34.90;;
64235;SDS011;50564;47.402;9.740;2023-03-03T14:55:43;60.05;;;34.22;;
64235;SDS011;50564;47.402;9.740;2023-03-03T15:00:47;61.58;;;34.72;;
64235;SDS011;50564;47.402;9.740;2023-03-03T15:05:52;60.78;;;35.05;;
64235;SDS011;50564;47.402;9.740;2023-03-03T15:10:55;59.72;;;34.25;;
64235;SDS011;50564;47.402;9.740;2023-03-03T15:16:22;59.42;;;34.30;;
64235;SDS011;50564;47.402;9.740;2023-03-03T15:21:24;59.97;;;34.10;;
64235;SDS011;50564;47.402;9.740;2023-03-03T15:26:45;45.63;;;25.67;;
64235;SDS011;50564;47.402;9.740;2023-03-03T15:32:21;65.95;;;36.75;;
64235;SDS011;50564;47.402;9.740;2023-03-03T15:42:51;68.15;;;37.85;;
64235;SDS011;50564;47.402;9.740;2023-03-03T15:48:22;68.20;;;36.90;;
64235;SDS011;50564;47.402;9.740;2023-03-03T16:03:52;60.58;;;33.10;;
64235;SDS011;50564;47.402;9.740;2023-03-03T16:14:25;60.38;;;34.22;;
64235;SDS011;50564;47.402;9.740;2023-03-03T16:30:33;68.70;;;36.97;;
64235;SDS011;50564;47.402;9.740;2023-03-03T16:35:43;67.95;;;37.28;;
64235;SDS011;50564;47.402;9.740;2023-03-03T16:40:54;73.25;;;41.40;;
64235;SDS011;50564;47.402;9.740;2023-03-03T16:45:57;67.55;;;37.03;;
64235;SDS011;50564;47.402;9.740;2023-03-03T17:19:32;60.92;;;35.53;;
64235;SDS011;50564;47.402;9.740;2023-03-03T17:40:24;68.80;;;36.88;;
64235;SDS011;50564;47.402;9.740;2023-03-03T17:45:38;65.35;;;38.50;;
64235;SDS011;50564;47.402;9.740;2023-03-03T17:51:29;66.22;;;35.15;;
64235;SDS011;50564;47.402;9.740;2023-03-03T17:57:01;63.78;;;36.22;;
64235;SDS011;50564;47.402;9.740;2023-03-03T18:13:06;63.65;;;35.20;;
64235;SDS011;50564;47.402;9.740;2023-03-03T18:23:51;68.70;;;35.13;;
64235;SDS011;50564;47.402;9.740;2023-03-03T18:29:33;63.67;;;34.72;;
64235;SDS011;50564;47.402;9.740;2023-03-03T18:34:40;67.97;;;37.40;;
64235;SDS011;50564;47.402;9.740;2023-03-03T18:39:45;57.53;;;29.93;;
64235;SDS011;50564;47.402;9.740;2023-03-03T18:44:50;68.00;;;36.67;;
64235;SDS011;50564;47.402;9.740;2023-03-03T19:05:25;67.10;;;35.92;;
64235;SDS011;50564;47.402;9.740;2023-03-03T19:31:32;54.87;;;29.77;;
64235;SDS011;50564;47.402;9.740;2023-03-03T20:08:52;61.05;;;32.80;;
64235;SDS011;50564;47.402;9.740;2023-03-03T20:19:15;60.17;;;34.22;;
64235;SDS011;50564;47.402;9.740;2023-03-03T20:45:56;60.45;;;32.22;;
64235;SDS011;50564;47.402;9.740;2023-03-03T21:01:50;65.07;;;34.22;;
64235;SDS011;50564;47.402;9.740;2023-03-03T21:07:25;63.28;;;33.45;;
64235;SDS011;50564;47.402;9.740;2023-03-03T21:12:28;63.38;;;36.58;;
64235;SDS011;50564;47.402;9.740;2023-03-03T21:17:30;59.60;;;31.77;;
64235;SDS011;50564;47.402;9.740;2023-03-03T21:22:31;61.50;;;32.75;;
64235;SDS011;50564;47.402;9.740;2023-03-03T21:27:33;61.20;;;33.13;;
64235;SDS011;50564;47.402;9.740;2023-03-03T21:32:43;65.03;;;35.65;;
64235;SDS011;50564;47.402;9.740;2023-03-03T21:37:46;61.20;;;34.83;;
64235;SDS011;50564;47.402;9.740;2023-03-03T21:42:49;58.83;;;33.58;;
64235;SDS011;50564;47.402;9.740;2023-03-03T21:47:51;61.53;;;34.08;;
64235;SDS011;50564;47.402;9.740;2023-03-03T21:52:54;63.08;;;33.92;;
64235;SDS011;50564;47.402;9.740;2023-03-03T21:57:55;56.50;;;31.23;;
64235;SDS011;50564;47.402;9.740;2023-03-03T22:02:56;57.85;;;33.10;;
64235;SDS011;50564;47.402;9.740;2023-03-03T22:07:56;59.03;;;32.75;;
64235;SDS011;50564;47.402;9.740;2023-03-03T22:12:57;57.65;;;33.90;;
64235;SDS011;50564;47.402;9.740;2023-03-03T22:17:58;62.65;;;34.83;;
64235;SDS011;50564;47.402;9.740;2023-03-03T22:22:59;57.00;;;31.50;;
64235;SDS011;50564;47.402;9.740;2023-03-03T22:28:00;56.47;;;31.02;;
64235;SDS011;50564;47.402;9.740;2023-03-03T22:33:01;67.60;;;33.70;;
64235;SDS011;50564;47.402;9.740;2023-03-03T22:38:01;67.05;;;35.90;;
64235;SDS011;50564;47.402;9.740;2023-03-03T22:43:02;59.00;;;33.25;;
64235;SDS011;50564;47.402;9.740;2023-03-03T22:48:05;64.18;;;35.83;;
64235;SDS011;50564;47.402;9.740;2023-03-03T22:53:06;66.45;;;36.67;;
64235;SDS011;50564;47.402;9.740;2023-03-03T22:58:08;62.45;;;34.40;;
64235;SDS011;50564;47.402;9.740;2023-03-03T23:03:09;69.43;;;35.05;;
64235;SDS011;50564;47.402;9.740;2023-03-03T23:08:12;66.63;;;35.42;;
64235;SDS011;50564;47.402;9.740;2023-03-03T23:13:15;67.05;;;38.33;;
64235;SDS011;50564;47.402;9.740;2023-03-03T23:18:15;67.70;;;36.22;;
64235;SDS011;50564;47.402;9.740;2023-03-03T23:23:16;67.32;;;37.58;;
64235;SDS011;50564;47.402;9.740;2023-03-03T23:28:17;61.38;;;35.10;;
64235;SDS011;50564;47.402;9.740;2023-03-03T23:33:18;67.00;;;36.72;;
64235;SDS011;50564;47.402;9.740;2023-03-03T23:38:19;67.30;;;37.03;;
64235;SDS011;50564;47.402;9.740;2023-03-03T23:43:20;64.55;;;34.92;;
64235;SDS011;50564;47.402;9.740;2023-03-03T23:48:21;64.78;;;34.42;;
64235;SDS011;50564;47.402;9.740;2023-03-03T23:53:21;68.07;;;36.50;;
64235;SDS011;50564;47.402;9.740;2023-03-03T23:58:22;61.00;;;33.78;;
